Time;durP1;ratioP1;P1;durP2;ratioP2;P2;SDS_P1;SDS_P2;PMS_P1;PMS_P2;Temp;Humidity;BMP_temperature;BMP_pressure;BME280_temperature;BME280_humidity;BME280_pressure;Samples;Min_cycle;Max_cycle;Signal;HPM_P1;HPM_P2
2022/09/02 00:01:12;;;;;;;16.88;9.00;;;;;;;23.32;69.86;99298.16;3144624;28;20543;-61
2022/09/02 00:02:44;;;;;;;23.98;8.88;;;;;;;23.31;69.99;99303.66;3145032;28;20048;-61
2022/09/02 00:04:20;;;;;;;19.33;8.88;;;;;;;23.29;70.13;99306.44;3144760;28;20071;-62
2022/09/02 00:05:52;;;;;;;12.27;8.43;;;;;;;23.28;70.05;99309.25;3144151;28;20532;-61
2022/09/02 00:07:24;;;;;;;14.27;9.55;;;;;;;23.27;70.13;99302.28;3144693;28;20055;-60
2022/09/02 00:08:56;;;;;;;15.13;9.13;;;;;;;23.15;70.39;99291.13;3144439;28;20052;-61
2022/09/02 00:10:28;;;;;;;16.02;8.77;;;;;;;23.22;69.86;99305.47;3145020;28;20050;-60
2022/09/02 00:12:00;;;;;;;13.38;8.40;;;;;;;23.21;70.25;99303.78;3144499;28;20044;-61
2022/09/02 00:13:32;;;;;;;16.65;9.15;;;;;;;23.18;69.98;99306.75;3144659;28;20052;-61
2022/09/02 00:15:05;;;;;;;15.23;8.57;;;;;;;23.16;70.43;99304.28;3144955;28;20110;-61
2022/09/02 00:16:37;;;;;;;15.55;9.48;;;;;;;23.16;70.08;99303.44;3144872;28;20059;-61
2022/09/02 00:18:12;;;;;;;19.83;8.82;;;;;;;23.16;70.32;99303.44;3138158;28;20477;-60
2022/09/02 00:19:46;;;;;;;17.30;9.45;;;;;;;23.15;70.13;99294.63;3144659;28;20049;-61
2022/09/02 00:21:18;;;;;;;16.85;9.93;;;;;;;23.16;70.41;99298.13;3145015;28;20501;-60
2022/09/02 00:22:50;;;;;;;14.83;9.53;;;;;;;23.15;70.57;99304.41;3144850;28;20186;-60
2022/09/02 00:24:23;;;;;;;16.30;8.98;;;;;;;23.15;70.54;99299.94;3144631;28;20048;-61
2022/09/02 00:25:54;;;;;;;;;;;;;;;23.13;70.31;99293.97;3145385;28;20098;-60
2022/09/02 00:27:26;;;;;;;16.75;9.02;;;;;;;23.11;71.03;99301.25;3144703;28;19971;-60
2022/09/02 00:28:57;;;;;;;21.25;8.18;;;;;;;23.12;70.68;99302.09;3144654;28;20052;-61
2022/09/02 00:30:29;;;;;;;15.88;8.82;;;;;;;23.12;71.29;99304.75;3143978;28;20052;-60
2022/09/02 00:32:01;;;;;;;13.13;9.77;;;;;;;23.13;71.04;99307.25;3145268;28;20441;-59
2022/09/02 00:33:33;;;;;;;21.73;9.48;;;;;;;23.05;71.89;99287.81;3144765;28;20102;-60
2022/09/02 00:35:08;;;;;;;13.93;8.63;;;;;;;23.09;71.81;99295.28;3144847;28;20044;-61
2022/09/02 00:36:40;;;;;;;13.48;8.73;;;;;;;23.09;72.25;99295.28;3144714;28;20045;-61
2022/09/02 00:38:13;;;;;;;17.77;9.23;;;;;;;23.05;72.34;99290.47;3144859;28;20048;-61
2022/09/02 00:39:45;;;;;;;17.27;8.55;;;;;;;23.10;72.33;99304.94;3144730;28;20428;-62
2022/09/02 00:41:19;;;;;;;15.65;9.80;;;;;;;23.14;72.17;99297.47;3144943;28;20895;-61
2022/09/02 00:42:51;;;;;;;18.30;9.23;;;;;;;23.13;72.29;99295.78;3144947;28;20052;-61
2022/09/02 00:44:23;;;;;;;13.63;8.52;;;;;;;23.11;72.74;99295.97;3144771;28;20533;-61
2022/09/02 00:45:55;;;;;;;18.92;9.52;;;;;;;23.11;73.04;99300.44;3144610;28;20105;-59
2022/09/02 00:47:30;;;;;;;17.63;8.85;;;;;;;23.11;73.29;99292.47;3144320;28;20058;-59
2022/09/02 00:49:04;;;;;;;16.90;9.43;;;;;;;23.11;73.59;99295.13;3144566;28;20273;-59
2022/09/02 00:50:37;;;;;;;16.92;9.68;;;;;;;23.07;74.10;99284.00;3144697;28;20182;-59
2022/09/02 00:52:13;;;;;;;16.35;9.85;;;;;;;23.08;73.79;99285.66;3144388;28;20053;-59
2022/09/02 00:53:47;;;;;;;15.90;10.35;;;;;;;23.08;74.24;99288.31;3144634;28;20049;-59
2022/09/02 00:55:21;;;;;;;18.98;11.20;;;;;;;23.10;74.27;99293.44;3144587;28;20136;-59
2022/09/02 00:56:55;;;;;;;18.30;10.50;;;;;;;23.09;74.44;99295.28;3142567;28;20048;-59
2022/09/02 00:58:31;;;;;;;21.90;11.00;;;;;;;23.08;74.94;99288.31;3144105;28;20044;-59
2022/09/02 01:00:10;;;;;;;18.15;11.35;;;;;;;23.08;75.17;99292.78;3142654;28;20057;-60
2022/09/02 01:01:42;;;;;;;15.43;11.88;;;;;;;23.08;75.29;99295.47;3144267;28;20565;-59
2022/09/02 01:03:16;;;;;;;14.57;10.20;;;;;;;23.08;75.30;99298.09;3143934;28;20067;-59
2022/09/02 01:04:48;;;;;;;15.18;12.02;;;;;;;23.08;75.32;99298.09;3144446;28;20059;-59
2022/09/02 01:06:26;;;;;;;17.65;11.20;;;;;;;23.05;76.41;99293.13;3144383;28;20056;-59
2022/09/02 01:07:58;;;;;;;20.77;10.85;;;;;;;23.06;76.51;99294.78;3144211;28;20076;-59
2022/09/02 01:09:31;;;;;;;21.73;12.35;;;;;;;22.99;76.79;99278.66;3144661;28;20052;-60
2022/09/02 01:11:03;;;;;;;20.27;12.57;;;;;;;22.96;76.96;99283.47;3144817;28;20076;-59
2022/09/02 01:12:36;;;;;;;18.30;11.98;;;;;;;23.04;77.10;99296.75;3144499;28;20075;-59
2022/09/02 01:14:08;;;;;;;;;;;;;;;23.02;76.80;99294.28;3144844;28;20048;-59
2022/09/02 01:15:44;;;;;;;20.77;11.43;;;;;;;23.02;77.22;99291.63;3139950;28;19972;-59
2022/09/02 01:17:19;;;;;;;24.20;12.02;;;;;;;23.02;77.66;99293.44;3144558;28;20052;-61
2022/09/02 01:18:53;;;;;;;18.80;12.88;;;;;;;23.00;78.31;99284.81;3144582;28;20056;-59
2022/09/02 01:20:27;;;;;;;23.58;12.75;;;;;;;23.01;78.13;99289.09;3145110;28;20048;-60
2022/09/02 01:22:00;;;;;;;;;;;;;;;22.99;78.45;99293.78;3146485;28;20466;-60
2022/09/02 01:23:32;;;;;;;15.50;11.68;;;;;;;22.99;78.11;99291.13;3146719;28;19975;-60
2022/09/02 01:25:07;;;;;;;24.30;13.35;;;;;;;23.00;78.34;99292.75;3146607;28;20046;-60
2022/09/02 01:26:39;;;;;;;17.17;13.07;;;;;;;23.00;78.84;99290.13;3147725;28;20049;-60
2022/09/02 01:28:14;;;;;;;18.67;12.25;;;;;;;23.02;78.63;99290.78;3146739;28;20056;-60
2022/09/02 01:29:50;;;;;;;25.23;13.57;;;;;;;23.04;78.67;99283.47;3141949;28;20055;-59
2022/09/02 01:31:22;;;;;;;21.30;12.98;;;;;;;23.05;78.57;99285.97;3140758;28;20106;-60
2022/09/02 01:32:53;;;;;;;23.30;13.82;;;;;;;23.06;78.32;99290.28;3146366;28;20513;-60
2022/09/02 01:34:25;;;;;;;19.92;13.48;;;;;;;23.06;78.93;99286.81;3146989;28;20049;-60
2022/09/02 01:35:57;;;;;;;21.50;14.15;;;;;;;23.02;79.44;99288.13;3146498;28;20048;-60
2022/09/02 01:37:31;;;;;;;22.65;14.40;;;;;;;23.02;79.54;99282.81;3146229;28;20468;-61
2022/09/02 01:39:03;;;;;;;26.58;14.25;;;;;;;23.02;79.78;99293.44;3146513;28;20531;-61
2022/09/02 01:40:35;;;;;;;27.67;14.45;;;;;;;23.02;79.56;99288.97;3146689;28;20437;-61
2022/09/02 01:42:07;;;;;;;24.25;14.52;;;;;;;23.00;80.36;99287.47;3146471;28;20445;-61
2022/09/02 01:43:39;;;;;;;24.80;14.93;;;;;;;23.01;80.16;99283.78;3146534;28;20044;-60
2022/09/02 01:45:12;;;;;;;23.70;14.43;;;;;;;23.04;79.94;99286.13;3146343;28;20056;-61
2022/09/02 01:46:44;;;;;;;26.98;14.20;;;;;;;23.05;80.41;99288.63;3146799;28;20055;-60
2022/09/02 01:48:16;;;;;;;20.20;13.50;;;;;;;23.07;80.29;99285.81;3146427;28;20044;-61
2022/09/02 01:49:48;;;;;;;18.58;11.00;;;;;;;23.08;80.15;99283.00;3146461;28;20079;-61
2022/09/02 01:51:21;;;;;;;17.73;9.70;;;;;;;23.05;80.68;99293.94;3146177;28;20055;-61
2022/09/02 01:52:54;;;;;;;22.48;11.15;;;;;;;23.05;80.03;99285.97;3146338;28;20700;-61
2022/09/02 01:54:26;;;;;;;17.55;11.70;;;;;;;23.08;80.08;99295.47;3146382;28;20450;-61
2022/09/02 01:55:59;;;;;;;24.98;10.57;;;;;;;23.09;79.90;99294.44;3146477;28;20045;-61
2022/09/02 01:57:29;;;;;;;16.20;10.00;;;;;;;23.06;80.38;99284.16;3145992;28;20045;-61
2022/09/02 01:59:02;;;;;;;23.45;11.20;;;;;;;23.07;80.27;99286.66;3146363;28;20299;-61
2022/09/02 02:00:33;;;;;;;16.85;9.32;;;;;;;23.06;80.06;99284.16;3146235;28;20136;-61
2022/09/02 02:02:06;;;;;;;20.13;9.82;;;;;;;23.03;80.69;99281.81;3146490;28;20441;-60
2022/09/02 02:03:38;;;;;;;17.83;9.93;;;;;;;23.02;80.83;99282.81;3146432;28;20056;-60
2022/09/02 02:05:10;;;;;;;13.57;9.52;;;;;;;22.98;81.16;99284.94;3145677;28;20604;-61
2022/09/02 02:06:43;;;;;;;15.35;9.30;;;;;;;22.93;81.28;99274.78;3146345;28;20056;-60
2022/09/02 02:08:16;;;;;;;20.05;9.73;;;;;;;22.92;81.13;99283.75;3146155;28;20114;-61
2022/09/02 02:09:47;;;;;;;18.92;9.77;;;;;;;22.91;81.29;99282.09;3146460;28;20051;-61
2022/09/02 02:11:21;;;;;;;19.73;9.77;;;;;;;22.88;81.57;99284.22;3146105;28;20080;-60
2022/09/02 02:12:53;;;;;;;19.48;10.35;;;;;;;22.92;81.40;99286.41;3145999;28;20067;-61
2022/09/02 02:14:24;;;;;;;21.95;11.52;;;;;;;22.90;80.84;99280.44;3142795;28;20048;-61
2022/09/02 02:15:57;;;;;;;20.60;8.98;;;;;;;22.92;81.22;99291.72;3146118;28;20044;-61
2022/09/02 02:17:27;;;;;;;17.70;10.93;;;;;;;22.90;81.31;99291.06;3146148;28;20055;-60
2022/09/02 02:18:59;;;;;;;17.92;10.80;;;;;;;22.86;81.67;99294.16;3145899;28;20044;-60
2022/09/02 02:20:31;;;;;;;21.70;10.93;;;;;;;22.87;81.11;99290.53;3146034;28;20477;-61
2022/09/02 02:22:04;;;;;;;18.10;10.45;;;;;;;22.83;81.47;99294.50;3146396;28;20044;-61
2022/09/02 02:23:37;;;;;;;15.95;10.90;;;;;;;22.82;81.41;99293.66;3146473;28;20143;-61
2022/09/02 02:25:09;;;;;;;16.73;9.52;;;;;;;22.82;81.76;99291.00;3145728;28;20437;-60
2022/09/02 02:26:41;;;;;;;18.67;11.13;;;;;;;22.83;81.61;99297.16;3146001;28;20445;-60
2022/09/02 02:28:13;;;;;;;17.77;9.60;;;;;;;22.83;81.37;99290.00;3145763;28;20311;-61
2022/09/02 02:29:45;;;;;;;23.10;9.20;;;;;;;22.83;80.92;99283.88;3145927;28;20071;-61
2022/09/02 02:31:17;;;;;;;16.35;9.27;;;;;;;22.83;80.94;99283.88;3139432;28;20052;-61
2022/09/02 02:32:48;;;;;;;18.77;9.80;;;;;;;22.78;80.98;99273.75;3145372;28;20048;-60
2022/09/02 02:34:21;;;;;;;17.92;9.63;;;;;;;22.77;81.23;99284.53;3146012;28;20114;-60
2022/09/02 02:35:52;;;;;;;13.23;9.10;;;;;;;22.73;81.39;99280.53;3145893;28;20136;-60
2022/09/02 02:37:25;;;;;;;15.93;9.15;;;;;;;22.69;81.58;99282.69;3145533;28;20508;-60
2022/09/02 02:39:00;;;;;;;16.45;9.38;;;;;;;22.66;81.41;99277.69;3145954;28;20722;-60
2022/09/02 02:40:32;;;;;;;19.52;10.30;;;;;;;22.62;81.32;99287.78;3145792;28;20130;-60
2022/09/02 02:42:04;;;;;;;19.17;10.13;;;;;;;22.60;81.72;99283.63;3145904;28;20040;-60
2022/09/02 02:43:35;;;;;;;17.65;9.73;;;;;;;22.55;81.83;99285.94;3139181;28;20044;-60
2022/09/02 02:45:10;;;;;;;13.63;9.50;;;;;;;22.57;81.85;99289.22;3145985;28;20041;-60
2022/09/02 02:46:41;;;;;;;22.10;9.57;;;;;;;22.58;81.68;99281.13;3145876;28;20126;-60
2022/09/02 02:48:13;;;;;;;20.05;8.85;;;;;;;22.59;81.14;99284.59;3145471;28;20444;-60
2022/09/02 02:49:45;;;;;;;22.35;9.60;;;;;;;22.57;81.62;99278.63;3145648;28;20105;-60
2022/09/02 02:51:17;;;;;;;20.05;10.38;;;;;;;22.55;81.75;99276.13;3145308;28;20060;-60
2022/09/02 02:52:49;;;;;;;21.42;9.20;;;;;;;22.55;81.76;99270.00;3145444;28;20048;-60
2022/09/02 02:54:22;;;;;;;15.57;9.23;;;;;;;22.54;81.68;99273.63;3145651;28;20056;-60
2022/09/02 02:55:54;;;;;;;18.25;9.05;;;;;;;22.53;81.43;99277.28;3145572;28;20097;-60
2022/09/02 02:57:26;;;;;;;17.13;9.90;;;;;;;22.52;81.42;99279.13;3145490;28;20049;-60
2022/09/02 02:59:02;;;;;;;13.27;8.25;;;;;;;22.48;81.64;99275.94;3145298;28;20049;-60
2022/09/02 03:00:35;;;;;;;19.38;8.60;;;;;;;22.42;81.40;99268.63;3145178;28;20040;-60
2022/09/02 03:02:07;;;;;;;14.75;9.00;;;;;;;22.48;81.89;99275.94;3145577;28;20052;-60
2022/09/02 03:03:38;;;;;;;13.85;8.75;;;;;;;22.46;81.74;99271.78;3145565;28;20053;-60
2022/09/02 03:05:11;;;;;;;16.58;8.68;;;;;;;22.44;81.78;99269.28;3145267;28;20135;-59
2022/09/02 03:06:43;;;;;;;16.00;8.90;;;;;;;22.41;82.12;99274.91;3145594;28;20071;-60
2022/09/02 03:08:19;;;;;;;17.63;9.23;;;;;;;22.41;81.80;99277.56;3141205;28;20442;-60
2022/09/02 03:09:51;;;;;;;15.23;9.00;;;;;;;22.39;82.25;99281.34;3145712;28;20066;-60
2022/09/02 03:11:26;;;;;;;19.35;8.38;;;;;;;22.34;82.08;99281.84;3145228;28;20053;-60
2022/09/02 03:12:58;;;;;;;15.98;8.70;;;;;;;22.34;82.41;99281.00;3145288;28;20055;-60
2022/09/02 03:14:31;;;;;;;15.68;9.45;;;;;;;22.33;82.36;99282.84;3145546;28;20060;-60
2022/09/02 03:16:05;;;;;;;17.63;8.77;;;;;;;22.31;82.63;99283.97;3145334;28;20053;-60
2022/09/02 03:17:36;;;;;;;17.88;8.63;;;;;;;22.30;82.46;99279.66;3145555;28;20049;-60
2022/09/02 03:19:08;;;;;;;16.40;8.32;;;;;;;22.29;82.71;99286.78;3147210;28;20044;-60
2022/09/02 03:20:41;;;;;;;24.15;9.45;;;;;;;22.29;82.71;99275.34;3145657;28;20441;-60
2022/09/02 03:22:13;;;;;;;20.40;9.37;;;;;;;22.30;82.25;99277.81;3145381;28;20052;-60
2022/09/02 03:23:45;;;;;;;15.30;9.18;;;;;;;22.28;82.71;99269.22;3144977;28;20314;-60
2022/09/02 03:25:20;;;;;;;15.02;9.15;;;;;;;22.31;82.45;99276.03;3145345;28;20049;-60
2022/09/02 03:26:52;;;;;;;17.55;9.07;;;;;;;22.31;82.92;99276.84;3145105;28;20405;-60
2022/09/02 03:28:23;;;;;;;15.13;9.30;;;;;;;22.31;83.00;99270.72;3145137;28;20064;-60
2022/09/02 03:29:55;;;;;;;15.90;9.45;;;;;;;22.34;82.63;99275.72;3145268;28;20044;-60
2022/09/02 03:31:27;;;;;;;14.15;8.95;;;;;;;22.34;82.31;99279.19;3145126;28;20090;-60
2022/09/02 03:33:01;;;;;;;17.00;9.40;;;;;;;22.35;82.32;99270.22;3145471;28;20044;-60
2022/09/02 03:34:33;;;;;;;16.40;8.43;;;;;;;22.34;82.42;99267.75;3138784;28;20049;-60
2022/09/02 03:36:05;;;;;;;15.13;9.38;;;;;;;22.34;82.64;99273.06;3145040;28;20093;-60
2022/09/02 03:37:37;;;;;;;13.65;9.02;;;;;;;22.32;82.67;99273.19;3145245;28;20056;-60
2022/09/02 03:39:11;;;;;;;12.95;9.02;;;;;;;22.33;82.67;99271.38;3145149;28;20429;-60
2022/09/02 03:40:44;;;;;;;;;;;;;;;22.30;82.50;99277.81;3145955;28;20068;-60
2022/09/02 03:42:15;;;;;;;14.60;9.05;;;;;;;22.28;82.69;99277.16;3145084;28;19920;-60
2022/09/02 03:43:48;;;;;;;14.80;8.90;;;;;;;22.29;82.86;99276.16;3144172;28;20049;-60
2022/09/02 03:45:20;;;;;;;16.63;9.35;;;;;;;22.29;82.91;99270.03;3145290;28;20052;-60
2022/09/02 03:46:52;;;;;;;19.17;9.25;;;;;;;22.28;82.71;99279.00;3145107;28;20781;-60
2022/09/02 03:48:23;;;;;;;18.10;9.63;;;;;;;22.26;83.21;99281.78;3144996;28;20052;-60
2022/09/02 03:49:55;;;;;;;17.88;9.07;;;;;;;22.27;83.04;99280.78;3144881;28;20044;-60
2022/09/02 03:51:27;;;;;;;17.33;8.93;;;;;;;22.28;83.30;99281.66;3145246;28;20052;-60
2022/09/02 03:53:00;;;;;;;15.18;8.77;;;;;;;22.26;83.52;99281.78;3144990;28;20044;-60
2022/09/02 03:54:32;;;;;;;15.00;8.30;;;;;;;22.27;82.89;99280.78;3145100;28;20059;-60
2022/09/02 03:56:11;;;;;;;15.32;9.70;;;;;;;22.24;83.15;99287.25;3145046;28;20052;-60
2022/09/02 03:57:43;;;;;;;14.80;9.48;;;;;;;22.21;83.38;99289.38;3144569;28;20052;-60
2022/09/02 03:59:14;;;;;;;15.35;8.35;;;;;;;22.20;83.67;99287.72;3144545;28;20040;-61
2022/09/02 04:00:50;;;;;;;19.23;9.77;;;;;;;22.21;83.74;99282.28;3144829;28;20056;-61
2022/09/02 04:02:23;;;;;;;16.98;9.80;;;;;;;22.22;83.30;99293.72;3144949;28;20056;-61
2022/09/02 04:03:55;;;;;;;17.25;9.63;;;;;;;22.18;83.56;99287.03;3144993;28;20401;-61
2022/09/02 04:05:26;;;;;;;16.45;9.80;;;;;;;22.16;84.30;99291.66;3144809;28;20060;-61
2022/09/02 04:06:59;;;;;;;17.83;9.68;;;;;;;22.13;84.07;99297.28;3144731;28;20147;-61
2022/09/02 04:08:31;;;;;;;14.45;9.80;;;;;;;22.14;84.21;99294.44;3144896;28;20040;-60
2022/09/02 04:10:02;;;;;;;17.88;9.10;;;;;;;22.16;84.20;99300.44;3144567;28;20536;-62
2022/09/02 04:11:36;;;;;;;14.43;9.05;;;;;;;22.15;84.07;99301.41;3145027;28;20052;-61
2022/09/02 04:13:06;;;;;;;19.70;9.25;;;;;;;22.16;83.75;99305.75;3144657;28;20461;-61
2022/09/02 04:14:38;;;;;;;20.70;9.30;;;;;;;22.20;83.41;99304.47;3144946;28;20044;-61
2022/09/02 04:16:11;;;;;;;17.77;8.63;;;;;;;22.21;83.78;99308.78;3150301;28;20044;-61
2022/09/02 04:17:43;;;;;;;16.85;9.70;;;;;;;22.22;83.46;99305.16;3144798;28;20087;-61
2022/09/02 04:19:14;;;;;;;20.65;10.00;;;;;;;22.22;83.10;99299.00;3144627;28;20516;-61
2022/09/02 04:20:46;;;;;;;17.33;9.45;;;;;;;22.23;83.06;99308.63;3145117;28;20137;-61
2022/09/02 04:22:17;;;;;;;16.55;9.57;;;;;;;22.24;82.84;99302.31;3144730;28;20126;-61
2022/09/02 04:23:51;;;;;;;24.77;10.35;;;;;;;22.25;83.18;99309.31;3144764;28;20097;-61
2022/09/02 04:25:23;;;;;;;12.63;9.02;;;;;;;22.23;82.92;99303.31;3144758;28;20056;-61
2022/09/02 04:26:56;;;;;;;17.10;9.23;;;;;;;22.25;82.98;99298.69;3144700;28;20071;-60
2022/09/02 04:28:28;;;;;;;;;;;;;;;22.24;83.09;99304.97;3145313;28;20049;-60
2022/09/02 04:30:00;;;;;;;13.05;8.98;;;;;;;22.18;83.08;99300.28;3144635;28;19928;-60
2022/09/02 04:31:32;;;;;;;15.90;9.80;;;;;;;22.26;82.82;99308.31;3144794;28;20053;-60
2022/09/02 04:33:02;;;;;;;19.25;8.77;;;;;;;22.24;82.61;99319.09;3144661;28;20056;-60
2022/09/02 04:34:34;;;;;;;14.55;9.23;;;;;;;22.25;83.02;99318.09;3144669;28;20426;-61
2022/09/02 04:36:07;;;;;;;18.55;9.10;;;;;;;22.26;82.45;99318.91;3144889;28;20102;-61
2022/09/02 04:37:39;;;;;;;17.85;9.60;;;;;;;22.28;82.91;99316.13;3144861;28;20052;-61
2022/09/02 04:39:11;;;;;;;13.68;8.88;;;;;;;22.28;82.60;99321.44;3144480;28;20055;-61
2022/09/02 04:40:44;;;;;;;15.52;9.15;;;;;;;22.28;82.78;99324.09;3144704;28;20056;-61
2022/09/02 04:42:17;;;;;;;17.40;9.32;;;;;;;22.29;82.39;99318.59;3144134;28;20060;-61
2022/09/02 04:43:49;;;;;;;16.02;9.13;;;;;;;22.28;82.92;99326.75;3145028;28;20048;-61
2022/09/02 04:45:21;;;;;;;13.23;9.32;;;;;;;22.27;82.70;99317.91;3144712;28;20045;-61
2022/09/02 04:46:53;;;;;;;17.58;9.95;;;;;;;22.31;82.73;99324.59;3141769;28;20449;-61
2022/09/02 04:48:24;;;;;;;16.30;8.90;;;;;;;22.33;82.15;99325.28;3144694;28;20422;-61
2022/09/02 04:49:56;;;;;;;14.60;8.85;;;;;;;22.32;82.53;99328.91;3144330;28;20048;-61
2022/09/02 04:51:28;;;;;;;15.20;9.60;;;;;;;22.35;82.75;99327.75;3144591;28;20487;-61
2022/09/02 04:52:59;;;;;;;14.30;10.23;;;;;;;22.34;82.40;99316.31;3144445;28;20044;-61
2022/09/02 04:54:31;;;;;;;19.30;10.48;;;;;;;22.34;82.22;99326.13;3144566;28;20590;-62
2022/09/02 04:56:04;;;;;;;20.40;9.88;;;;;;;22.35;82.30;99323.28;3146663;28;20070;-60
2022/09/02 04:57:36;;;;;;;19.73;10.48;;;;;;;22.34;82.42;99326.94;3146754;28;20040;-60
2022/09/02 04:59:08;;;;;;;17.65;9.82;;;;;;;22.31;82.50;99329.06;3146897;28;20045;-60
2022/09/02 05:00:41;;;;;;;13.27;9.10;;;;;;;22.31;82.68;99329.91;3147327;28;20049;-61
2022/09/02 05:02:13;;;;;;;20.83;11.10;;;;;;;22.30;82.50;99330.88;3147128;28;20082;-60
2022/09/02 05:03:45;;;;;;;15.32;9.45;;;;;;;22.31;82.57;99331.72;3144276;28;20048;-61
2022/09/02 05:05:17;;;;;;;15.35;9.25;;;;;;;22.32;82.63;99336.03;3146665;28;20493;-60
2022/09/02 05:06:49;;;;;;;15.57;9.38;;;;;;;22.35;82.35;99338.38;3146941;28;20048;-61
2022/09/02 05:08:22;;;;;;;17.48;9.57;;;;;;;22.35;82.21;99327.75;3147065;28;20135;-60
2022/09/02 05:09:56;;;;;;;19.70;9.88;;;;;;;22.36;82.13;99338.22;3141572;28;20044;-61
2022/09/02 05:11:30;;;;;;;16.27;10.30;;;;;;;22.28;82.07;99316.94;3147966;28;20082;-60
2022/09/02 05:13:03;;;;;;;18.35;10.40;;;;;;;22.37;81.79;99337.22;3147864;28;20047;-61
2022/09/02 05:14:35;;;;;;;21.10;10.68;;;;;;;22.37;81.88;99331.94;3146627;28;20044;-61
2022/09/02 05:16:07;;;;;;;22.63;10.45;;;;;;;22.38;82.25;99328.28;3146735;28;20075;-60
2022/09/02 05:17:40;;;;;;;18.50;10.27;;;;;;;22.38;82.37;99328.28;3146664;28;20052;-61
2022/09/02 05:19:12;;;;;;;18.92;10.13;;;;;;;22.40;82.17;99331.63;3146948;28;20060;-61
2022/09/02 05:20:44;;;;;;;15.20;10.73;;;;;;;22.42;81.94;99329.66;3146680;28;20052;-61
2022/09/02 05:22:16;;;;;;;17.27;11.13;;;;;;;22.40;81.78;99344.88;3145849;28;20056;-61
2022/09/02 05:23:47;;;;;;;15.50;10.48;;;;;;;22.39;81.73;99329.97;3146320;28;20052;-61
2022/09/02 05:25:19;;;;;;;17.65;11.18;;;;;;;22.39;81.46;99318.50;3146907;28;20057;-60
2022/09/02 05:26:51;;;;;;;19.25;10.68;;;;;;;22.39;81.73;99332.63;3146490;28;20049;-61
2022/09/02 05:28:24;;;;;;;19.45;11.32;;;;;;;22.38;81.53;99322.97;3146525;28;20063;-61
2022/09/02 05:29:58;;;;;;;16.92;10.63;;;;;;;22.37;82.12;99321.31;3146358;28;20142;-61
2022/09/02 05:31:30;;;;;;;;;;;;;;;22.37;81.88;99323.97;3147009;28;20505;-61
2022/09/02 05:33:02;;;;;;;22.63;10.98;;;;;;;22.36;81.94;99330.28;3146499;28;19950;-61
2022/09/02 05:34:34;;;;;;;20.90;10.93;;;;;;;22.36;81.74;99322.31;3146514;28;20448;-60
2022/09/02 05:36:07;;;;;;;22.67;10.73;;;;;;;22.38;81.61;99328.28;3146876;28;20048;-61
2022/09/02 05:37:39;;;;;;;17.33;11.40;;;;;;;22.37;81.80;99325.78;3146575;28;20056;-61
2022/09/02 05:39:11;;;;;;;19.17;12.05;;;;;;;22.38;82.02;99335.41;3146557;28;20041;-61
2022/09/02 05:40:42;;;;;;;24.65;13.07;;;;;;;22.39;81.69;99329.97;3146551;28;20052;-61
2022/09/02 05:42:15;;;;;;;20.20;12.43;;;;;;;22.41;81.78;99322.66;3146430;28;20139;-61
2022/09/02 05:43:49;;;;;;;25.38;12.88;;;;;;;22.45;81.32;99320.50;3146458;28;20071;-61
2022/09/02 05:45:22;;;;;;;21.38;12.80;;;;;;;22.47;81.84;99323.84;3146214;28;20048;-61
2022/09/02 05:46:54;;;;;;;25.40;14.45;;;;;;;22.50;81.52;99320.88;3146628;28;20055;-61
2022/09/02 05:50:15;;;;;;;21.73;13.20;;;;;;;22.58;81.34;99320.94;3145665;28;20383;-61
2022/09/02 05:51:49;;;;;;;24.80;13.93;;;;;;;22.62;81.28;99319.63;3146077;28;20449;-61
2022/09/02 05:53:21;;;;;;;22.48;14.75;;;;;;;22.63;80.84;99321.31;3146277;28;20067;-61
2022/09/02 05:54:53;;;;;;;22.80;14.27;;;;;;;22.59;81.09;99306.66;3146363;28;20080;-61
2022/09/02 05:56:26;;;;;;;23.15;13.88;;;;;;;22.66;81.29;99325.47;3143908;28;20066;-61
2022/09/02 05:57:58;;;;;;;21.77;13.93;;;;;;;22.68;81.27;99323.47;3143313;28;20494;-61
2022/09/02 05:59:35;;;;;;;21.45;13.38;;;;;;;22.71;80.74;99323.97;3146241;28;20052;-61
2022/09/02 06:01:09;;;;;;;24.17;13.32;;;;;;;22.73;81.02;99321.16;3146315;28;20049;-61
2022/09/02 06:02:41;;;;;;;19.25;12.30;;;;;;;22.78;80.17;99324.19;3146500;28;20131;-60
2022/09/02 06:04:13;;;;;;;20.90;13.38;;;;;;;22.81;80.56;99326.53;3146057;28;20063;-60
2022/09/02 06:05:54;;;;;;;29.50;12.90;;;;;;;22.80;80.37;99322.19;3139543;28;20052;-60
2022/09/02 06:07:26;;;;;;;20.63;12.07;;;;;;;22.81;80.09;99321.22;3139177;28;20049;-61
2022/09/02 06:08:58;;;;;;;21.75;11.48;;;;;;;22.84;79.98;99323.56;3152311;28;20055;-61
2022/09/02 06:10:30;;;;;;;20.42;11.95;;;;;;;22.81;80.37;99315.91;3146163;28;20135;-61
2022/09/02 06:12:02;;;;;;;20.63;11.93;;;;;;;22.88;79.85;99324.88;3146093;28;20041;-62
2022/09/02 06:13:35;;;;;;;21.77;11.35;;;;;;;22.90;80.16;99327.41;3146249;28;20041;-61
2022/09/02 06:15:09;;;;;;;23.65;12.48;;;;;;;22.93;79.56;99329.72;3146205;28;20422;-61
2022/09/02 06:16:41;;;;;;;17.23;10.93;;;;;;;22.97;79.55;99338.22;3146104;28;20135;-61
2022/09/02 06:18:13;;;;;;;23.50;11.85;;;;;;;23.00;79.83;99337.91;3145927;28;20044;-60
2022/09/02 06:19:46;;;;;;;23.42;11.93;;;;;;;23.03;79.20;99332.28;3146138;28;20044;-59
2022/09/02 06:21:19;;;;;;;27.00;11.07;;;;;;;23.06;79.02;99334.59;3146077;28;20597;-59
2022/09/02 06:22:51;;;;;;;17.17;11.80;;;;;;;23.06;79.26;99330.13;3145972;28;20048;-59
2022/09/02 06:24:23;;;;;;;19.92;11.68;;;;;;;23.08;79.03;99333.47;3145875;28;20056;-58
2022/09/02 06:25:55;;;;;;;19.13;10.60;;;;;;;23.11;79.23;99334.97;3146255;28;20063;-58
2022/09/02 06:27:27;;;;;;;20.10;11.52;;;;;;;23.12;79.11;99331.31;3145392;28;20125;-61
2022/09/02 06:28:59;;;;;;;20.42;11.15;;;;;;;23.13;78.93;99330.31;3145693;28;20048;-58
2022/09/02 06:30:31;;;;;;;23.45;12.40;;;;;;;23.15;78.69;99336.28;3145970;28;20425;-58
2022/09/02 06:32:03;;;;;;;21.90;11.32;;;;;;;23.14;78.72;99334.66;3141099;28;20076;-58
2022/09/02 06:33:36;;;;;;;23.35;13.30;;;;;;;23.13;79.12;99338.28;3145791;28;20594;-58
2022/09/02 06:35:09;;;;;;;22.07;11.17;;;;;;;23.15;78.74;99341.59;3145720;28;20075;-58
2022/09/02 06:36:41;;;;;;;;;;;;;;;23.13;78.46;99333.81;3146161;28;20814;-59
2022/09/02 06:38:14;;;;;;;33.05;12.23;;;;;;;23.14;78.37;99339.97;3145836;28;20105;-58
2022/09/02 06:39:47;;;;;;;17.38;10.30;;;;;;;23.15;78.66;99334.47;3145185;28;20049;-58
2022/09/02 06:41:22;;;;;;;17.73;10.57;;;;;;;23.16;78.71;99336.16;3145550;28;20133;-58
2022/09/02 06:42:54;;;;;;;19.60;11.35;;;;;;;23.19;78.13;99332.34;3140764;28;20048;-58
2022/09/02 06:44:25;;;;;;;17.17;10.75;;;;;;;23.20;78.48;99339.31;3145797;28;20083;-59
2022/09/02 06:45:59;;;;;;;20.42;9.60;;;;;;;23.22;78.05;99336.47;3145503;28;20064;-59
2022/09/02 06:47:31;;;;;;;21.27;11.65;;;;;;;23.23;78.09;99332.84;3145710;28;20044;-60
2022/09/02 06:49:05;;;;;;;20.57;11.80;;;;;;;23.24;77.62;99335.31;3145461;28;20048;-59
2022/09/02 06:50:39;;;;;;;18.88;11.32;;;;;;;23.20;77.78;99326.03;3145726;28;20044;-59
2022/09/02 06:52:13;;;;;;;21.02;11.93;;;;;;;23.31;77.58;99343.50;3145521;28;20048;-59
2022/09/02 06:53:45;;;;;;;17.35;11.23;;;;;;;23.31;77.06;99332.88;3145451;28;20048;-59
2022/09/02 06:55:17;;;;;;;26.58;11.00;;;;;;;23.33;77.45;99334.34;3145650;28;20060;-59
2022/09/02 06:56:50;;;;;;;23.67;12.23;;;;;;;23.36;77.06;99334.03;3145447;28;20041;-59
2022/09/02 06:58:21;;;;;;;14.07;10.77;;;;;;;23.40;77.21;99334.56;3143025;28;20105;-59
2022/09/02 06:59:53;;;;;;;18.05;10.40;;;;;;;23.43;77.12;99341.38;3145432;28;20057;-59
2022/09/02 07:01:29;;;;;;;17.90;9.38;;;;;;;23.43;76.88;99341.38;3145284;28;20057;-59
2022/09/02 07:06:41;;;;;;;17.80;9.35;;;;;;;23.51;76.42;99349.34;3145377;28;20053;-59
2022/09/02 07:08:13;;;;;;;16.45;9.00;;;;;;;23.50;76.59;99353.81;3140223;28;20048;-58
2022/09/02 07:09:45;;;;;;;15.40;9.23;;;;;;;23.49;76.45;99340.72;3145278;28;20052;-59
2022/09/02 07:11:20;;;;;;;16.55;9.10;;;;;;;23.48;76.64;99336.38;3145315;28;20055;-59
2022/09/02 07:12:52;;;;;;;18.65;8.70;;;;;;;23.60;76.43;99348.34;3145253;28;20090;-59
2022/09/02 07:14:26;;;;;;;14.52;8.80;;;;;;;23.62;76.42;99349.03;3145020;28;20500;-59
2022/09/02 07:15:58;;;;;;;13.43;8.95;;;;;;;23.70;76.09;99346.41;3145547;28;20102;-59